createdAt,value
2019-04-06T00:01:53.777Z,8.43
2019-04-06T00:04:21.167Z,7.93
2019-04-06T00:06:48.559Z,8.93
2019-04-06T00:09:15.963Z,7.75
2019-04-06T00:11:43.357Z,6.78
2019-04-06T00:14:10.769Z,8.10
2019-04-06T00:16:38.162Z,9.27
2019-04-06T00:19:05.561Z,8.98
2019-04-06T00:21:32.973Z,6.90
2019-04-06T00:26:34.193Z,8.57
2019-04-06T00:29:01.604Z,8.15
2019-04-06T00:31:34.741Z,8.50
2019-04-06T00:34:02.150Z,7.45
2019-04-06T00:36:29.575Z,8.05
2019-04-06T00:38:56.962Z,8.30
2019-04-06T00:41:24.367Z,8.38
2019-04-06T00:43:51.776Z,8.05
2019-04-06T00:46:19.311Z,9.13
2019-04-06T00:48:46.712Z,7.80
2019-04-06T00:51:14.232Z,8.02
2019-04-06T00:53:41.568Z,7.47
2019-04-06T00:56:08.972Z,7.78
2019-04-06T00:58:37.486Z,8.63
2019-04-06T01:01:04.921Z,7.37
2019-04-06T01:03:32.411Z,8.55
2019-04-06T01:05:59.806Z,6.28
2019-04-06T01:08:28.026Z,7.30
2019-04-06T01:10:55.439Z,8.00
2019-04-06T01:13:22.843Z,9.50
2019-04-06T01:15:50.234Z,7.78
2019-04-06T01:18:17.632Z,8.15
2019-04-06T01:20:45.045Z,8.23
2019-04-06T01:23:12.451Z,7.12
2019-04-06T01:25:39.872Z,6.55
2019-04-06T01:28:07.293Z,7.10
2019-04-06T01:30:35.455Z,8.63
2019-04-06T01:33:02.839Z,9.00
2019-04-06T01:35:30.656Z,9.50
2019-04-06T01:37:58.065Z,7.40
2019-04-06T01:40:25.511Z,8.80
2019-04-06T01:42:52.956Z,8.25
2019-04-06T01:45:20.348Z,8.00
2019-04-06T01:47:47.869Z,7.57
2019-04-06T01:50:15.260Z,7.68
2019-04-06T01:52:42.655Z,6.55
2019-04-06T01:55:10.053Z,6.45
2019-04-06T01:57:37.499Z,8.05
2019-04-06T02:00:06.406Z,8.93
2019-04-06T02:02:33.809Z,7.60
2019-04-06T02:05:01.214Z,9.50
2019-04-06T02:07:28.648Z,8.50
2019-04-06T02:09:56.048Z,9.07
2019-04-06T02:12:23.447Z,8.18
2019-04-06T02:14:50.845Z,7.72
2019-04-06T02:17:18.274Z,8.15
2019-04-06T02:19:45.691Z,8.30
2019-04-06T02:22:13.078Z,7.20
2019-04-06T02:24:40.486Z,8.00
2019-04-06T02:27:07.903Z,8.27
2019-04-06T02:29:35.305Z,8.02
2019-04-06T02:32:08.226Z,9.95
2019-04-06T02:34:55.234Z,8.20
2019-04-06T02:37:28.235Z,10.07
2019-04-06T02:39:58.474Z,9.45
2019-04-06T02:42:26.435Z,8.80
2019-04-06T02:44:53.789Z,10.43
2019-04-06T02:47:21.183Z,11.63
2019-04-06T02:49:48.588Z,10.13
2019-04-06T02:52:15.992Z,10.40
2019-04-06T02:54:43.423Z,9.65
2019-04-06T02:57:10.850Z,9.35
2019-04-06T02:59:39.089Z,9.80
2019-04-06T03:02:06.488Z,8.85
2019-04-06T03:04:33.901Z,9.48
2019-04-06T03:07:01.303Z,8.95
2019-04-06T03:09:28.707Z,9.38
2019-04-06T03:11:56.209Z,8.32
2019-04-06T03:14:23.519Z,9.93
2019-04-06T03:16:50.912Z,9.48
2019-04-06T03:19:18.985Z,9.65
2019-04-06T03:21:46.389Z,8.90
2019-04-06T03:24:13.804Z,9.57
2019-04-06T03:26:41.213Z,8.63
2019-04-06T03:29:08.607Z,8.10
2019-04-06T03:31:36.014Z,9.45
2019-04-06T03:34:04.165Z,9.68
2019-04-06T03:36:31.419Z,9.13
2019-04-06T03:38:59.095Z,7.32
2019-04-06T03:41:26.344Z,8.40
2019-04-06T03:43:53.752Z,7.90
2019-04-06T03:46:21.147Z,11.32
2019-04-06T03:48:48.788Z,7.70
2019-04-06T03:51:16.014Z,8.20
2019-04-06T03:53:43.435Z,8.07
2019-04-06T03:56:10.817Z,8.43
2019-04-06T03:58:38.237Z,8.23
2019-04-06T04:01:05.761Z,9.20
2019-04-06T04:03:33.171Z,8.70
2019-04-06T04:06:00.569Z,11.50
2019-04-06T04:08:27.984Z,8.32
2019-04-06T04:10:56.097Z,10.30
2019-04-06T04:13:23.677Z,8.80
2019-04-06T04:15:51.113Z,12.00
2019-04-06T04:18:18.537Z,10.35
2019-04-06T04:20:46.172Z,10.82
2019-04-06T04:23:13.418Z,8.88
2019-04-06T04:25:40.972Z,9.10
2019-04-06T04:28:08.396Z,10.20
2019-04-06T04:30:35.713Z,8.65
2019-04-06T04:33:03.113Z,7.97
2019-04-06T04:35:30.509Z,8.68
2019-04-06T04:37:58.243Z,9.45
2019-04-06T04:40:25.660Z,8.20
2019-04-06T04:42:52.891Z,9.43
2019-04-06T04:45:20.319Z,9.60
2019-04-06T04:47:50.030Z,8.80
2019-04-06T04:50:15.357Z,9.55
2019-04-06T04:52:43.009Z,9.75
2019-04-06T04:55:10.234Z,8.65
2019-04-06T04:57:41.139Z,9.63
2019-04-06T05:00:05.140Z,8.23
2019-04-06T05:02:32.541Z,10.50
2019-04-06T05:04:59.958Z,11.38
2019-04-06T05:07:27.363Z,8.70
2019-04-06T05:09:54.803Z,11.12
2019-04-06T05:12:22.300Z,9.35
2019-04-06T05:14:56.176Z,9.02
2019-04-06T05:17:23.566Z,9.82
2019-04-06T05:19:50.989Z,9.20
2019-04-06T05:22:18.393Z,9.32
2019-04-06T05:24:45.808Z,9.45
2019-04-06T05:27:13.272Z,8.77
2019-04-06T05:29:40.693Z,8.40
2019-04-06T05:32:08.289Z,8.73
2019-04-06T05:34:35.533Z,9.20
2019-04-06T05:37:02.966Z,9.00
2019-04-06T05:39:30.359Z,10.48
2019-04-06T05:41:57.785Z,8.27
2019-04-06T05:44:25.173Z,8.40
2019-04-06T05:46:52.584Z,10.10
2019-04-06T05:49:19.988Z,8.85
2019-04-06T05:51:47.395Z,9.27
2019-04-06T05:54:14.789Z,8.82
2019-04-06T05:56:42.178Z,9.75
2019-04-06T05:59:10.247Z,8.93
2019-04-06T06:01:40.337Z,9.88
2019-04-06T06:04:04.451Z,10.75
2019-04-06T06:06:31.859Z,8.70
2019-04-06T06:08:59.287Z,7.30
2019-04-06T06:11:26.695Z,8.13
2019-04-06T06:13:54.119Z,9.48
2019-04-06T06:16:21.535Z,10.90
2019-04-06T06:18:48.939Z,9.05
2019-04-06T06:21:16.333Z,8.63
2019-04-06T06:23:43.735Z,9.90
2019-04-06T06:26:11.258Z,13.90
2019-04-06T06:28:38.567Z,12.45
2019-04-06T06:31:05.976Z,12.70
2019-04-06T06:33:33.383Z,17.40
2019-04-06T06:36:00.980Z,13.93
2019-04-06T06:38:28.383Z,15.50
2019-04-06T06:40:55.836Z,10.98
2019-04-06T06:43:23.394Z,11.82
2019-04-06T06:45:50.700Z,14.35
2019-04-06T06:48:18.103Z,14.65
2019-04-06T06:50:45.514Z,12.70
2019-04-06T06:53:12.934Z,17.20
2019-04-06T06:55:40.328Z,11.75
2019-04-06T06:58:07.775Z,14.60
2019-04-06T07:00:35.182Z,16.35
2019-04-06T07:03:02.601Z,12.27
2019-04-06T07:05:30.003Z,15.75
2019-04-06T07:07:57.402Z,15.70
2019-04-06T07:10:24.846Z,10.63
2019-04-06T07:12:52.223Z,16.25
2019-04-06T07:15:19.674Z,16.12
2019-04-06T07:17:47.137Z,15.45
2019-04-06T07:22:41.478Z,11.47
2019-04-06T07:25:08.881Z,10.60
2019-04-06T07:27:36.288Z,11.30
2019-04-06T07:30:04.404Z,11.82
2019-04-06T07:32:31.812Z,10.77
2019-04-06T07:34:59.334Z,8.63
2019-04-06T07:37:26.614Z,9.18
2019-04-06T07:39:54.026Z,10.00
2019-04-06T07:42:21.488Z,9.38
2019-04-06T07:44:48.890Z,12.13
2019-04-06T07:47:16.278Z,9.02
2019-04-06T07:49:46.168Z,9.50
2019-04-06T07:52:11.428Z,10.15
2019-04-06T07:54:38.579Z,11.20
2019-04-06T07:57:05.986Z,10.30
2019-04-06T07:59:33.512Z,10.38
2019-04-06T08:02:00.915Z,10.70
2019-04-06T08:04:28.330Z,11.55
2019-04-06T08:06:55.806Z,11.43
2019-04-06T08:09:23.159Z,10.75
2019-04-06T08:11:50.582Z,11.17
2019-04-06T08:14:18.298Z,10.85
2019-04-06T08:16:45.470Z,10.73
2019-04-06T08:19:13.068Z,10.20
2019-04-06T08:21:40.415Z,9.35
2019-04-06T08:24:07.933Z,8.50
2019-04-06T08:26:35.320Z,9.88
2019-04-06T08:29:02.871Z,11.15
2019-04-06T08:31:30.168Z,10.50
2019-04-06T08:33:57.579Z,10.07
2019-04-06T08:36:24.998Z,10.05
2019-04-06T08:38:52.419Z,9.35
2019-04-06T08:41:19.816Z,9.38
2019-04-06T08:43:47.260Z,12.52
2019-04-06T08:46:14.663Z,10.85
2019-04-06T08:48:42.073Z,14.30
2019-04-06T08:51:09.557Z,10.93
2019-04-06T08:53:36.983Z,10.40
2019-04-06T08:56:04.458Z,11.05
2019-04-06T08:58:31.863Z,10.80
2019-04-06T09:00:59.662Z,11.52
2019-04-06T09:03:27.072Z,10.40
2019-04-06T09:05:55.107Z,10.77
2019-04-06T09:08:22.507Z,11.35
2019-04-06T09:10:49.926Z,12.02
2019-04-06T09:13:18.200Z,14.60
2019-04-06T09:15:45.759Z,13.13
2019-04-06T09:18:13.424Z,12.27
2019-04-06T09:20:40.819Z,14.43
2019-04-06T09:23:08.275Z,14.70
2019-04-06T09:25:35.874Z,12.07
2019-04-06T09:28:03.366Z,11.07
2019-04-06T09:30:30.699Z,13.07
2019-04-06T09:32:58.355Z,12.50
2019-04-06T09:35:25.536Z,13.57
2019-04-06T09:37:52.943Z,12.27
2019-04-06T09:40:20.369Z,11.23
2019-04-06T09:42:47.755Z,12.13
2019-04-06T09:48:11.737Z,21.20
2019-04-06T09:54:05.160Z,21.70
2019-04-06T09:56:27.536Z,12.15
2019-04-06T09:59:01.562Z,13.25
2019-04-06T10:04:22.015Z,21.20
2019-04-06T10:06:55.152Z,10.63
2019-04-06T10:09:23.570Z,13.68
2019-04-06T10:11:54.959Z,13.70
2019-04-06T10:14:24.882Z,12.30
2019-04-06T10:16:54.996Z,12.07
2019-04-06T10:19:32.665Z,11.98
2019-04-06T10:25:14.834Z,17.62
2019-04-06T10:27:42.264Z,10.82
2019-04-06T10:30:25.779Z,12.77
2019-04-06T10:32:54.407Z,11.05
2019-04-06T10:35:21.863Z,8.82
2019-04-06T10:38:04.321Z,8.85
2019-04-06T10:40:38.323Z,11.25
2019-04-06T10:43:11.071Z,10.20
2019-04-06T10:45:38.487Z,10.25
2019-04-06T10:48:08.843Z,10.55
2019-04-06T10:53:35.696Z,17.87
2019-04-06T10:56:07.615Z,10.45
2019-04-06T10:58:52.781Z,9.88
2019-04-06T11:01:24.538Z,10.20
2019-04-06T11:03:51.933Z,9.80
2019-04-06T11:06:20.844Z,10.80
2019-04-06T11:08:52.176Z,10.65
2019-04-06T11:11:25.226Z,11.55
2019-04-06T11:16:50.437Z,22.20
2019-04-06T11:19:33.442Z,9.93
2019-04-06T11:22:00.855Z,11.40
2019-04-06T11:24:28.285Z,15.43
2019-04-06T11:27:01.228Z,11.82
2019-04-06T11:29:30.016Z,11.85
2019-04-06T11:34:54.420Z,18.23
2019-04-06T11:37:22.174Z,11.23
2019-04-06T11:40:05.454Z,12.20
2019-04-06T11:42:38.528Z,12.27
2019-04-06T11:45:06.799Z,10.57
2019-04-06T11:47:37.092Z,11.48
2019-04-06T11:50:04.514Z,11.75
2019-04-06T11:52:37.409Z,11.60
2019-04-06T11:55:09.339Z,11.98
2019-04-06T11:57:39.743Z,10.23
2019-04-06T12:03:01.661Z,16.07
2019-04-06T12:05:43.959Z,12.95
2019-04-06T12:08:17.150Z,10.18
2019-04-06T12:10:46.514Z,10.70
2019-04-06T12:13:24.637Z,10.00
2019-04-06T12:18:53.863Z,18.03
2019-04-06T12:21:24.103Z,11.88
2019-04-06T12:24:05.506Z,11.82
2019-04-06T12:26:35.117Z,11.95
2019-04-06T12:29:07.997Z,12.60
2019-04-06T12:31:40.044Z,12.25
2019-04-06T12:34:08.263Z,11.63
2019-04-06T12:36:39.419Z,11.02
2019-04-06T12:39:09.792Z,9.45
2019-04-06T12:41:42.697Z,10.63
2019-04-06T12:44:26.882Z,7.22
2019-04-06T12:47:15.095Z,8.60
2019-04-06T12:52:56.452Z,15.17
2019-04-06T12:58:29.157Z,13.07
2019-04-06T13:01:00.067Z,9.32
2019-04-06T13:03:31.337Z,8.38
2019-04-06T13:06:01.596Z,9.63
2019-04-06T13:08:29.319Z,8.80
2019-04-06T13:11:02.437Z,9.35
2019-04-06T13:13:29.838Z,8.68
2019-04-06T13:16:02.757Z,9.10
2019-04-06T13:18:34.480Z,9.13
2019-04-06T13:21:02.258Z,8.48
2019-04-06T13:23:41.323Z,7.93
2019-04-06T13:29:04.661Z,12.10
2019-04-06T13:31:33.681Z,8.48
2019-04-06T13:34:06.638Z,7.87
2019-04-06T13:36:39.654Z,9.93
2019-04-06T13:39:13.724Z,8.25
2019-04-06T13:41:42.703Z,7.87
2019-04-06T13:44:12.560Z,6.60
2019-04-06T13:46:45.419Z,6.65
2019-04-06T13:49:18.368Z,7.00
2019-04-06T13:51:46.197Z,6.97
2019-04-06T13:54:13.371Z,6.37
2019-04-06T13:56:45.093Z,7.35
2019-04-06T13:59:23.323Z,7.00
2019-04-06T14:02:00.682Z,7.95
2019-04-06T14:04:29.943Z,7.60
2019-04-06T14:09:55.675Z,9.52
2019-04-06T14:12:43.807Z,9.30
2019-04-06T14:15:16.932Z,6.28
2019-04-06T14:17:49.947Z,8.93
2019-04-06T14:20:20.410Z,7.00
2019-04-06T14:25:45.753Z,9.07
2019-04-06T14:28:14.206Z,8.70
2019-04-06T14:30:56.572Z,7.47
2019-04-06T14:36:18.932Z,9.65
2019-04-06T14:38:56.641Z,8.20
2019-04-06T14:41:24.445Z,8.93
2019-04-06T14:44:09.243Z,6.93
2019-04-06T14:46:41.030Z,8.48
2019-04-06T14:49:27.183Z,9.13
2019-04-06T14:51:44.563Z,6.30
2019-04-06T14:54:12.470Z,5.55
2019-04-06T14:56:40.506Z,7.80
2019-04-06T15:02:16.895Z,9.02
2019-04-06T15:05:01.271Z,6.70
2019-04-06T15:07:28.455Z,6.85
2019-04-06T15:10:12.644Z,7.03
2019-04-06T15:12:39.998Z,6.80
2019-04-06T15:18:02.974Z,8.02
2019-04-06T15:23:36.731Z,8.95
2019-04-06T15:26:04.288Z,7.53
2019-04-06T15:31:48.620Z,8.57
2019-04-06T15:34:14.303Z,6.47
2019-04-06T15:36:57.775Z,7.32
2019-04-06T15:39:30.519Z,6.68
2019-04-06T15:41:58.393Z,6.15
2019-04-06T15:44:27.610Z,7.40
2019-04-06T15:49:55.784Z,8.07
2019-04-06T15:52:28.557Z,6.95
2019-04-06T15:54:56.775Z,6.97
2019-04-06T15:57:28.159Z,6.37
2019-04-06T16:00:14.496Z,5.43
2019-04-06T16:02:47.490Z,5.72
2019-04-06T16:05:15.850Z,5.35
2019-04-06T16:10:35.847Z,9.10
2019-04-06T16:13:04.227Z,5.53
2019-04-06T16:15:37.421Z,7.03
2019-04-06T16:18:05.163Z,5.80
2019-04-06T16:20:34.096Z,5.30
2019-04-06T16:23:05.298Z,4.78
2019-04-06T16:25:32.705Z,4.50
2019-04-06T16:28:05.774Z,4.70
2019-04-06T16:30:34.869Z,5.40
2019-04-06T16:33:05.402Z,4.50
2019-04-06T16:35:33.099Z,4.20
2019-04-06T16:40:55.090Z,8.93
2019-04-06T16:46:36.333Z,7.57
2019-04-06T16:49:05.650Z,5.40
2019-04-06T16:51:35.472Z,5.90
2019-04-06T16:54:07.439Z,6.00
2019-04-06T16:56:36.643Z,6.30
2019-04-06T16:59:09.870Z,7.22
2019-04-06T17:01:52.269Z,6.22
2019-04-06T17:04:34.352Z,4.85
2019-04-06T17:07:03.210Z,4.43
2019-04-06T17:09:34.803Z,5.05
2019-04-06T17:12:07.462Z,6.43
2019-04-06T17:17:46.929Z,7.83
2019-04-06T17:23:18.127Z,7.53
2019-04-06T17:25:51.162Z,4.80
2019-04-06T17:28:18.573Z,5.20
2019-04-06T17:30:47.902Z,5.20
2019-04-06T17:33:21.170Z,4.72
2019-04-06T17:35:48.610Z,4.85
2019-04-06T17:38:16.132Z,3.90
2019-04-06T17:40:43.550Z,4.20
2019-04-06T17:43:17.044Z,5.82
2019-04-06T17:45:47.175Z,5.00
2019-04-06T17:48:16.863Z,5.32
2019-04-06T17:50:43.897Z,3.97
2019-04-06T17:56:04.567Z,5.30
2019-04-06T18:01:42.681Z,4.60
2019-04-06T18:04:13.782Z,2.40
2019-04-06T18:06:52.972Z,3.72
2019-04-06T18:09:20.304Z,2.70
2019-04-06T18:14:40.627Z,4.80
2019-04-06T18:17:08.064Z,3.35
2019-04-06T18:19:36.016Z,2.40
2019-04-06T18:22:02.972Z,2.87
2019-04-06T18:24:30.655Z,2.78
2019-04-06T18:26:57.824Z,3.75
2019-04-06T18:29:25.397Z,2.70
2019-04-06T18:31:55.187Z,2.40
2019-04-06T18:34:22.865Z,3.70
2019-04-06T18:36:52.923Z,3.22
2019-04-06T18:39:20.431Z,3.65
2019-04-06T18:41:47.836Z,2.90
2019-04-06T18:44:15.324Z,2.70
2019-04-06T18:46:42.782Z,2.30
2019-04-06T18:49:10.171Z,3.15
2019-04-06T18:51:37.575Z,2.28
2019-04-06T18:54:05.295Z,2.80
2019-04-06T18:56:32.428Z,2.53
2019-04-06T18:58:59.902Z,2.35
2019-04-06T19:01:27.331Z,3.37
2019-04-06T19:03:55.552Z,3.28
2019-04-06T19:06:22.147Z,2.55
2019-04-06T19:08:49.561Z,2.28
2019-04-06T19:11:17.375Z,3.00
2019-04-06T19:13:44.485Z,2.80
2019-04-06T19:16:12.951Z,3.00
2019-04-06T19:18:40.379Z,3.42
2019-04-06T19:21:07.785Z,3.05
2019-04-06T19:23:35.191Z,2.10
2019-04-06T19:26:02.623Z,2.40
2019-04-06T19:28:30.057Z,3.50
2019-04-06T19:30:57.636Z,2.65
2019-04-06T19:33:25.908Z,2.60
2019-04-06T19:35:52.858Z,2.33
2019-04-06T19:38:19.900Z,2.40
2019-04-06T19:40:47.730Z,2.75
2019-04-06T19:43:17.248Z,2.87
2019-04-06T19:45:42.202Z,2.62
2019-04-06T19:48:09.686Z,2.50
2019-04-06T19:50:37.118Z,2.33
2019-04-06T19:53:04.524Z,2.92
2019-04-06T19:55:32.000Z,3.03
2019-04-06T19:57:59.793Z,3.60
2019-04-06T20:00:27.236Z,3.03
2019-04-06T20:02:54.363Z,2.70
2019-04-06T20:05:21.750Z,2.58
2019-04-06T20:07:49.186Z,3.62
2019-04-06T20:10:16.749Z,2.40
2019-04-06T20:12:44.040Z,2.85
2019-04-06T20:15:11.482Z,2.92
2019-04-06T20:17:39.072Z,2.22
2019-04-06T20:20:06.529Z,3.53
2019-04-06T20:22:34.122Z,4.78
2019-04-06T20:25:01.638Z,3.65
2019-04-06T20:27:29.058Z,2.95
2019-04-06T20:39:44.610Z,2.37
2019-04-06T20:42:11.657Z,4.50
2019-04-06T20:44:39.282Z,2.17
2019-04-06T20:47:06.855Z,3.65
2019-04-06T20:49:34.010Z,2.90
2019-04-06T20:52:01.883Z,1.85
2019-04-06T20:54:28.931Z,2.90
2019-04-06T20:56:58.266Z,2.33
2019-04-06T20:59:24.122Z,3.05
2019-04-06T21:01:51.393Z,2.33
2019-04-06T21:04:18.962Z,4.30
2019-04-06T21:06:46.401Z,2.80
2019-04-06T21:09:14.126Z,2.60
2019-04-06T21:11:41.434Z,3.40
2019-04-06T21:14:08.967Z,2.20
2019-04-06T21:16:36.226Z,2.15
2019-04-06T21:19:03.742Z,2.15
2019-04-06T21:21:31.509Z,2.97
2019-04-06T21:23:58.483Z,3.15
2019-04-06T21:26:26.287Z,6.25
2019-04-06T21:28:53.407Z,4.07
2019-04-06T21:31:20.887Z,3.08
2019-04-06T21:33:48.455Z,1.95
2019-04-06T21:36:16.268Z,2.72
2019-04-06T21:38:43.344Z,2.20
2019-04-06T21:41:11.342Z,2.10
2019-04-06T21:43:38.173Z,2.08
2019-04-06T21:46:05.648Z,1.25
2019-04-06T21:48:33.404Z,1.80
2019-04-06T21:51:00.404Z,1.58
2019-04-06T21:53:27.926Z,11.20
2019-04-06T21:56:02.669Z,4.97
2019-04-06T21:58:23.241Z,2.50
2019-04-06T22:00:50.210Z,1.55
2019-04-06T22:03:17.893Z,1.20
2019-04-06T22:05:45.487Z,3.65
2019-04-06T22:08:13.093Z,3.00
2019-04-06T22:10:40.063Z,1.13
2019-04-06T22:13:08.268Z,4.97
2019-04-06T22:15:35.126Z,7.05
2019-04-06T22:18:02.694Z,1.67
2019-04-06T22:20:30.078Z,1.85
2019-04-06T22:22:57.552Z,3.00
2019-04-06T22:25:25.241Z,2.35
2019-04-06T22:27:52.961Z,1.40
2019-04-06T22:30:19.987Z,1.83
2019-04-06T22:32:48.129Z,1.85
2019-04-06T22:35:14.897Z,2.28
2019-04-06T22:37:42.442Z,5.00
2019-04-06T22:40:09.798Z,1.12
2019-04-06T22:42:37.195Z,1.15
2019-04-06T22:45:05.443Z,3.28
2019-04-06T22:47:32.854Z,1.55
2019-04-06T22:50:02.713Z,1.77
2019-04-06T22:52:30.493Z,0.90
2019-04-06T22:54:57.359Z,0.80
2019-04-06T22:57:25.075Z,1.25
2019-04-06T22:59:52.252Z,4.12
2019-04-06T23:02:20.342Z,3.33
2019-04-06T23:04:51.215Z,1.60
2019-04-06T23:07:16.683Z,0.80
2019-04-06T23:09:43.980Z,1.40
2019-04-06T23:12:11.877Z,1.70
2019-04-06T23:14:39.316Z,1.65
2019-04-06T23:17:06.393Z,11.90
2019-04-06T23:19:33.871Z,2.30
2019-04-06T23:22:01.421Z,1.63
2019-04-06T23:24:29.794Z,2.07
2019-04-06T23:26:57.794Z,1.33
2019-04-06T23:29:24.610Z,3.03
2019-04-06T23:31:52.128Z,2.15
2019-04-06T23:34:19.413Z,1.90
2019-04-06T23:36:47.352Z,11.40
2019-04-06T23:39:14.273Z,3.83
2019-04-06T23:41:42.749Z,2.58
2019-04-06T23:44:09.869Z,2.30
2019-04-06T23:46:37.266Z,3.97
2019-04-06T23:49:04.671Z,1.87
2019-04-06T23:51:32.106Z,2.17
2019-04-06T23:53:59.661Z,2.65
2019-04-06T23:56:27.093Z,1.87
2019-04-06T23:58:54.595Z,1.87
